Terminal Aerodrome Forecast
Issued by NWS

Home | Current Version | Previous Version | Text Only | Print | Product List | Glossary On
Versions: 1 2 3 4 5 6 7 8 9 10 11 12 13 14
000
FTUS45 KGGW 200500 AAA
TAFSDY
TAF AMD
KSDY 200507Z 2005/2024 VRB05KT 5SM HZ FEW130
     FM200800 26009KT 6SM HZ FEW140
     FM201500 27016G25KT P6SM FEW210
      AMD LTD TO CLD VIS AND WIND=

USA.gov is the U.S. government's official web portal to all federal, state and local government web resources and services.